createdAt,value
2023-08-15T00:01:57.763Z,94311.03
2023-08-15T00:04:24.681Z,94311.81
2023-08-15T00:06:51.400Z,94315.69
2023-08-15T00:09:18.113Z,94318.03
2023-08-15T00:11:44.873Z,94305.97
2023-08-15T00:14:12.734Z,94311.81
2023-08-15T00:16:39.547Z,94316.09
2023-08-15T00:19:06.511Z,94318.84
2023-08-15T00:21:33.360Z,94317.28
2023-08-15T00:24:00.069Z,94311.84
2023-08-15T00:26:26.994Z,94315.34
2023-08-15T00:28:53.769Z,94313.00
2023-08-15T00:31:20.575Z,94325.06
2023-08-15T00:33:47.569Z,94324.69
2023-08-15T00:36:14.413Z,94327.41
2023-08-15T00:38:41.380Z,94318.47
2023-08-15T00:41:08.689Z,94320.00
2023-08-15T00:43:35.676Z,94314.56
2023-08-15T00:46:04.414Z,94277.63
2023-08-15T00:48:33.070Z,94307.16
2023-08-15T00:51:02.698Z,94296.31
2023-08-15T00:53:31.658Z,94295.50
2023-08-15T00:55:59.283Z,94263.22
2023-08-15T00:58:26.544Z,94262.44
2023-08-15T01:00:53.401Z,94281.91
2023-08-15T01:03:20.618Z,94293.94
2023-08-15T01:05:48.890Z,94281.09
2023-08-15T01:08:16.646Z,94298.63
2023-08-15T01:10:44.515Z,94276.03
2023-08-15T01:13:20.668Z,94269.06
2023-08-15T01:15:51.795Z,94255.06
2023-08-15T01:18:40.373Z,94294.72
2023-08-15T01:21:07.861Z,94297.84
2023-08-15T01:23:43.659Z,94291.59
2023-08-15T01:26:11.380Z,94279.94
2023-08-15T01:28:40.012Z,94258.94
2023-08-15T01:31:14.228Z,94276.03
2023-08-15T01:33:50.720Z,94285.38
2023-08-15T01:36:24.967Z,94251.16
2023-08-15T01:39:00.934Z,94262.03
2023-08-15T01:41:33.102Z,94275.66
2023-08-15T01:44:02.423Z,94247.28
2023-08-15T01:46:29.527Z,94286.16
2023-08-15T01:48:58.928Z,94240.66
2023-08-15T01:51:27.111Z,94278.75
2023-08-15T01:53:54.117Z,94258.13
2023-08-15T01:56:20.898Z,94276.41
2023-08-15T01:58:47.768Z,94245.28
2023-08-15T02:01:15.464Z,94258.13
2023-08-15T02:03:42.447Z,94252.69
2023-08-15T02:06:10.394Z,94279.91
2023-08-15T02:08:37.189Z,94288.84
2023-08-15T02:11:04.087Z,94254.25
2023-08-15T02:13:33.714Z,94282.25
2023-08-15T02:16:01.408Z,94249.22
2023-08-15T02:18:30.538Z,94275.25
2023-08-15T02:20:57.363Z,94235.22
2023-08-15T02:23:24.479Z,94255.06
2023-08-15T02:25:51.305Z,94242.59
2023-08-15T02:28:18.846Z,94269.47
2023-08-15T02:30:45.710Z,94237.94
2023-08-15T02:33:12.746Z,94220.78
2023-08-15T02:35:42.002Z,94267.13
2023-08-15T02:38:09.316Z,94250.38
2023-08-15T02:40:38.270Z,94264.75
2023-08-15T02:43:05.061Z,94247.22
2023-08-15T02:45:31.943Z,94271.72
2023-08-15T02:47:58.854Z,94247.22
2023-08-15T02:50:25.903Z,94258.91
2023-08-15T02:52:52.824Z,94244.88
2023-08-15T02:55:19.793Z,94256.94
2023-08-15T02:57:46.801Z,94256.56
2023-08-15T03:00:14.063Z,94233.97
2023-08-15T03:02:42.344Z,94240.22
2023-08-15T03:05:09.473Z,94253.44
2023-08-15T03:07:36.447Z,94232.44
2023-08-15T03:10:04.829Z,94251.13
2023-08-15T03:12:31.754Z,94221.16
2023-08-15T03:14:59.069Z,94245.25
2023-08-15T03:17:26.470Z,94249.16
2023-08-15T03:19:56.677Z,94234.78
2023-08-15T03:22:23.556Z,94273.28
2023-08-15T03:24:50.652Z,94244.50
2023-08-15T03:27:17.522Z,94227.41
2023-08-15T03:29:44.349Z,94237.91
2023-08-15T03:32:11.626Z,94264.34
2023-08-15T03:34:39.147Z,94218.06
2023-08-15T03:37:06.167Z,94254.22
2023-08-15T03:39:33.021Z,94242.53
2023-08-15T03:41:59.916Z,94251.88
2023-08-15T03:44:26.788Z,94244.47
2023-08-15T03:46:53.730Z,94240.97
2023-08-15T03:49:20.674Z,94258.06
2023-08-15T03:51:47.909Z,94240.53
2023-08-15T03:54:17.629Z,94257.28
2023-08-15T03:56:45.504Z,94279.06
2023-08-15T03:59:12.723Z,94288.78
2023-08-15T04:01:39.622Z,94294.63
2023-08-15T04:04:07.204Z,94268.16
2023-08-15T04:06:34.129Z,94251.06
2023-08-15T04:09:00.988Z,94268.13
2023-08-15T04:11:27.855Z,94298.88
2023-08-15T04:13:54.632Z,94293.81
2023-08-15T04:16:22.807Z,94281.34
2023-08-15T04:18:49.747Z,94280.94
2023-08-15T04:21:16.993Z,94282.50
2023-08-15T04:23:43.801Z,94275.84
2023-08-15T04:26:11.659Z,94267.66
2023-08-15T04:28:38.768Z,94271.19
2023-08-15T04:31:05.600Z,94280.16
2023-08-15T04:33:32.692Z,94293.00
2023-08-15T04:35:59.546Z,94282.13
2023-08-15T04:38:27.281Z,94300.38
2023-08-15T04:40:55.129Z,94278.22
2023-08-15T04:43:23.417Z,94287.56
2023-08-15T04:45:50.236Z,94307.78
2023-08-15T04:48:17.264Z,94303.91
2023-08-15T04:50:44.106Z,94330.41
2023-08-15T04:53:12.090Z,94310.16
2023-08-15T04:55:39.152Z,94321.88
2023-08-15T04:58:10.389Z,94312.53
2023-08-15T05:00:37.577Z,94300.50
2023-08-15T05:03:05.627Z,94342.94
2023-08-15T05:05:32.886Z,94323.47
2023-08-15T05:08:00.050Z,94298.56
2023-08-15T05:10:27.172Z,94302.44
2023-08-15T05:12:54.457Z,94326.59
2023-08-15T05:15:21.334Z,94341.41
2023-08-15T05:17:49.584Z,94325.47
2023-08-15T05:20:17.392Z,94318.84
2023-08-15T05:22:45.864Z,94306.41
2023-08-15T05:25:12.685Z,94318.84
2023-08-15T05:27:46.126Z,94320.41
2023-08-15T05:30:13.423Z,94338.72
2023-08-15T05:32:40.571Z,94331.31
2023-08-15T05:35:07.870Z,94344.53
2023-08-15T05:37:34.917Z,94325.47
2023-08-15T05:40:04.611Z,94332.47
2023-08-15T05:42:32.411Z,94334.03
2023-08-15T05:44:59.182Z,94359.31
2023-08-15T05:47:26.013Z,94346.47
2023-08-15T05:49:52.826Z,94339.06
2023-08-15T05:52:19.627Z,94334.41
2023-08-15T05:54:46.377Z,94318.03
2023-08-15T05:57:13.201Z,94350.75
2023-08-15T05:59:39.976Z,94332.84
2023-08-15T06:02:06.864Z,94359.22
2023-08-15T06:04:33.641Z,94364.94
2023-08-15T06:07:00.505Z,94348.88
2023-08-15T06:09:28.376Z,94334.00
2023-08-15T06:11:55.488Z,94353.16
2023-08-15T06:14:22.583Z,94336.31
2023-08-15T06:16:49.744Z,94333.50
2023-08-15T06:19:17.211Z,94359.88
2023-08-15T06:21:44.180Z,94344.44
2023-08-15T06:24:14.713Z,94354.59
2023-08-15T06:26:41.873Z,94390.78
2023-08-15T06:29:09.147Z,94389.31
2023-08-15T06:31:37.038Z,94350.47
2023-08-15T06:34:04.283Z,94373.97
2023-08-15T06:36:32.487Z,94409.03
2023-08-15T06:38:59.364Z,94380.53
2023-08-15T06:41:26.150Z,94376.63
2023-08-15T06:43:54.382Z,94379.34
2023-08-15T06:46:21.201Z,94383.94
2023-08-15T06:48:48.009Z,94385.84
2023-08-15T06:51:15.011Z,94388.03
2023-08-15T06:53:45.565Z,94419.72
2023-08-15T06:56:12.611Z,94389.69
2023-08-15T06:58:39.832Z,94410.94
2023-08-15T07:01:07.538Z,94396.44
2023-08-15T07:03:35.016Z,94389.72
2023-08-15T07:06:02.112Z,94406.63
2023-08-15T07:08:28.970Z,94407.34
2023-08-15T07:10:57.773Z,94433.94
2023-08-15T07:13:24.866Z,94419.88
2023-08-15T07:15:58.047Z,94432.72
2023-08-15T07:18:25.498Z,94426.28
2023-08-15T07:20:53.358Z,94394.19
2023-08-15T07:23:21.708Z,94410.03
2023-08-15T07:25:48.789Z,94393.84
2023-08-15T07:28:15.647Z,94413.63
2023-08-15T07:30:46.605Z,94425.69
2023-08-15T07:33:15.180Z,94408.50
2023-08-15T07:35:42.864Z,94407.47
2023-08-15T07:38:10.005Z,94410.28
2023-08-15T07:40:36.941Z,94412.44
2023-08-15T07:43:03.805Z,94401.53
2023-08-15T07:45:30.801Z,94419.09
2023-08-15T07:47:59.545Z,94416.16
2023-08-15T07:50:28.954Z,94402.16
2023-08-15T07:52:59.591Z,94443.13
2023-08-15T07:55:29.770Z,94421.41
2023-08-15T07:57:58.662Z,94420.19
2023-08-15T08:00:25.587Z,94414.63
2023-08-15T08:02:53.639Z,94426.72
2023-08-15T08:05:22.928Z,94417.03
2023-08-15T08:07:50.299Z,94431.50
2023-08-15T08:10:17.244Z,94421.63
2023-08-15T08:12:44.041Z,94430.38
2023-08-15T08:15:11.014Z,94451.56
2023-08-15T08:17:37.915Z,94453.53
2023-08-15T08:20:11.000Z,94411.97
2023-08-15T08:22:37.974Z,94453.19
2023-08-15T08:25:20.441Z,94439.13
2023-08-15T08:27:47.942Z,94441.84
2023-08-15T08:30:17.690Z,94458.97
2023-08-15T08:32:44.662Z,94425.28
2023-08-15T08:35:12.484Z,94443.75
2023-08-15T08:37:39.259Z,94439.66
2023-08-15T08:40:06.966Z,94460.78
2023-08-15T08:42:35.333Z,94430.00
2023-08-15T08:45:07.325Z,94448.81
2023-08-15T08:47:34.781Z,94446.59
2023-08-15T08:50:02.188Z,94458.47
2023-08-15T08:52:29.424Z,94449.56
2023-08-15T08:54:57.742Z,94462.91
2023-08-15T08:57:28.863Z,94471.47
2023-08-15T08:59:58.129Z,94440.75
2023-08-15T09:02:25.043Z,94458.56
2023-08-15T09:04:53.701Z,94448.50
2023-08-15T09:07:20.716Z,94446.41
2023-08-15T09:09:47.786Z,94474.66
2023-08-15T09:12:37.661Z,94458.81
2023-08-15T09:15:11.591Z,94453.16
2023-08-15T09:17:39.634Z,94440.19
2023-08-15T09:20:19.559Z,94477.56
2023-08-15T09:22:48.082Z,94455.09
2023-08-15T09:25:17.009Z,94487.72
2023-08-15T09:27:44.778Z,94483.59
2023-08-15T09:30:14.255Z,94458.34
2023-08-15T09:32:42.268Z,94476.00
2023-08-15T09:35:11.042Z,94482.28
2023-08-15T09:37:45.492Z,94490.91
2023-08-15T09:40:20.314Z,94499.28
2023-08-15T09:42:47.317Z,94471.44
2023-08-15T09:45:15.336Z,94491.56
2023-08-15T09:47:43.469Z,94490.53
2023-08-15T09:50:12.138Z,94498.44
2023-08-15T09:52:41.202Z,94504.13
2023-08-15T09:55:15.459Z,94470.28
2023-08-15T09:57:44.331Z,94477.72
2023-08-15T10:00:13.685Z,94479.41
2023-08-15T10:02:49.553Z,94482.88
2023-08-15T10:05:22.268Z,94491.06
2023-08-15T10:07:50.542Z,94491.94
2023-08-15T10:10:19.242Z,94488.44
2023-08-15T10:12:48.249Z,94495.06
2023-08-15T10:15:15.832Z,94507.31
2023-08-15T10:17:42.994Z,94463.50
2023-08-15T10:20:13.503Z,94491.56
2023-08-15T10:22:41.063Z,94477.25
2023-08-15T10:25:37.218Z,94493.91
2023-08-15T10:28:13.634Z,94496.72
2023-08-15T10:30:51.754Z,94478.81
2023-08-15T10:33:22.483Z,94488.25
2023-08-15T10:36:09.299Z,94484.84
2023-08-15T10:38:44.955Z,94480.72
2023-08-15T10:41:17.497Z,94475.88
2023-08-15T10:43:53.410Z,94490.69
2023-08-15T10:46:26.846Z,94485.56
2023-08-15T10:49:03.668Z,94487.59
2023-08-15T10:51:33.793Z,94492.22
2023-08-15T10:54:05.623Z,94490.94
2023-08-15T10:56:37.343Z,94493.59
2023-08-15T10:59:08.133Z,94500.47
2023-08-15T11:01:37.312Z,94502.72
2023-08-15T11:04:04.971Z,94502.53
2023-08-15T11:06:32.012Z,94488.72
2023-08-15T11:09:00.046Z,94507.19
2023-08-15T11:11:27.199Z,94514.75
2023-08-15T11:13:55.240Z,94515.31
2023-08-15T11:16:23.963Z,94510.88
2023-08-15T11:18:51.380Z,94507.38
2023-08-15T11:21:19.553Z,94509.78
2023-08-15T11:23:48.477Z,94512.59
2023-08-15T11:26:17.281Z,94502.09
2023-08-15T11:28:44.225Z,94518.44
2023-08-15T11:33:43.741Z,94508.97
2023-08-15T11:36:13.729Z,94509.31
2023-08-15T11:38:40.860Z,94504.16
2023-08-15T11:41:07.685Z,94511.56
2023-08-15T11:43:34.966Z,94483.53
2023-08-15T11:46:03.160Z,94502.06
2023-08-15T11:48:31.741Z,94507.47
2023-08-15T11:50:58.998Z,94490.44
2023-08-15T11:53:26.009Z,94488.69
2023-08-15T11:55:53.792Z,94503.94
2023-08-15T11:58:27.763Z,94497.66
2023-08-15T12:00:58.552Z,94475.91
2023-08-15T12:03:27.153Z,94491.84
2023-08-15T12:06:00.298Z,94463.81
2023-08-15T12:08:28.468Z,94495.63
2023-08-15T12:10:59.496Z,94489.41
2023-08-15T12:13:33.745Z,94490.28
2023-08-15T12:16:04.781Z,94495.91
2023-08-15T12:18:32.659Z,94496.97
2023-08-15T12:21:00.471Z,94486.25
2023-08-15T12:23:29.053Z,94488.41
2023-08-15T12:25:56.342Z,94465.78
2023-08-15T12:28:23.225Z,94486.47
2023-08-15T12:30:50.973Z,94483.19
2023-08-15T12:33:27.607Z,94492.31
2023-08-15T12:36:04.835Z,94479.66
2023-08-15T12:38:31.581Z,94467.03
2023-08-15T12:40:58.399Z,94480.28
2023-08-15T12:43:25.140Z,94480.19
2023-08-15T12:45:51.957Z,94467.22
2023-08-15T12:48:18.843Z,94473.13
2023-08-15T12:50:45.676Z,94469.16
2023-08-15T12:53:12.585Z,94445.28
2023-08-15T12:55:39.408Z,94461.25
2023-08-15T12:58:06.341Z,94468.22
2023-08-15T13:00:33.201Z,94463.63
2023-08-15T13:03:00.392Z,94446.16
2023-08-15T13:05:27.571Z,94439.59
2023-08-15T13:07:54.879Z,94452.81
2023-08-15T13:10:22.457Z,94422.16
2023-08-15T13:12:49.247Z,94438.78
2023-08-15T13:15:16.012Z,94429.59
2023-08-15T13:17:44.376Z,94437.78
2023-08-15T13:20:13.963Z,94436.44
2023-08-15T13:22:40.948Z,94427.06
2023-08-15T13:25:08.352Z,94425.94
2023-08-15T13:27:35.424Z,94427.16
2023-08-15T13:30:02.190Z,94426.38
2023-08-15T13:32:29.005Z,94420.44
2023-08-15T13:34:56.057Z,94420.72
2023-08-15T13:37:22.907Z,94413.91
2023-08-15T13:39:49.623Z,94414.69
2023-08-15T13:42:30.821Z,94402.91
2023-08-15T13:45:05.945Z,94410.84
2023-08-15T13:47:34.641Z,94405.00
2023-08-15T13:50:02.622Z,94405.38
2023-08-15T13:52:29.787Z,94402.94
2023-08-15T13:54:56.655Z,94409.88
2023-08-15T13:57:23.931Z,94405.22
2023-08-15T13:59:50.991Z,94408.22
2023-08-15T14:02:17.816Z,94407.69
2023-08-15T14:04:45.027Z,94411.28
2023-08-15T14:07:11.746Z,94404.34
2023-08-15T14:09:38.491Z,94403.44
2023-08-15T14:12:05.478Z,94408.34
2023-08-15T14:14:32.152Z,94404.94
2023-08-15T14:16:58.894Z,94401.53
2023-08-15T14:19:25.831Z,94393.53
2023-08-15T14:21:52.742Z,94399.16
2023-08-15T14:24:19.514Z,94400.22
2023-08-15T14:26:46.221Z,94387.41
2023-08-15T14:29:13.490Z,94388.28
2023-08-15T14:31:40.247Z,94390.94
2023-08-15T14:34:07.010Z,94388.28
2023-08-15T14:36:33.865Z,94386.56
2023-08-15T14:39:00.622Z,94385.94
2023-08-15T14:41:27.368Z,94386.56
2023-08-15T14:43:54.388Z,94387.88
2023-08-15T14:46:21.198Z,94396.38
2023-08-15T14:48:48.037Z,94385.94
2023-08-15T14:51:14.731Z,94397.50
2023-08-15T14:53:41.512Z,94400.47
2023-08-15T14:56:08.243Z,94410.50
2023-08-15T14:58:34.922Z,94403.13
2023-08-15T15:01:01.668Z,94406.19
2023-08-15T15:03:28.481Z,94408.19
2023-08-15T15:05:55.256Z,94413.09
2023-08-15T15:08:22.322Z,94409.88
2023-08-15T15:10:53.512Z,94402.22
2023-08-15T15:13:20.232Z,94394.25
2023-08-15T15:18:18.545Z,94403.84
2023-08-15T15:20:45.560Z,94404.31
2023-08-15T15:23:12.425Z,94403.28
2023-08-15T15:25:39.184Z,94400.56
2023-08-15T15:28:06.158Z,94404.94
2023-08-15T15:30:32.869Z,94401.06
2023-08-15T15:32:59.675Z,94403.50
2023-08-15T15:35:26.461Z,94398.22
2023-08-15T15:37:53.171Z,94404.78
2023-08-15T15:40:19.876Z,94399.50
2023-08-15T15:42:47.073Z,94393.75
2023-08-15T15:45:13.813Z,94387.34
2023-08-15T15:47:40.757Z,94394.19
2023-08-15T15:50:07.945Z,94394.63
2023-08-15T15:52:34.714Z,94396.69
2023-08-15T15:55:01.488Z,94398.16
2023-08-15T15:57:28.230Z,94402.22
2023-08-15T15:59:54.951Z,94405.63
2023-08-15T16:02:22.169Z,94403.09
2023-08-15T16:04:50.313Z,94412.78
2023-08-15T16:07:17.642Z,94411.00
2023-08-15T16:09:45.910Z,94423.13
2023-08-15T16:12:12.744Z,94419.97
2023-08-15T16:14:39.443Z,94421.72
2023-08-15T16:17:06.181Z,94419.25
2023-08-15T16:19:32.939Z,94418.91
2023-08-15T16:21:59.677Z,94431.06
2023-08-15T16:24:26.418Z,94426.63
2023-08-15T16:26:53.133Z,94431.53
2023-08-15T16:29:20.266Z,94425.78
2023-08-15T16:31:47.087Z,94437.66
2023-08-15T16:34:13.885Z,94433.38
2023-08-15T16:36:40.613Z,94437.84
2023-08-15T16:39:07.486Z,94441.75
2023-08-15T16:41:34.220Z,94440.00
2023-08-15T16:44:01.084Z,94448.81
2023-08-15T16:46:27.947Z,94442.53
2023-08-15T16:48:54.866Z,94440.28
2023-08-15T16:51:22.187Z,94459.72
2023-08-15T16:53:49.183Z,94455.66
2023-08-15T16:56:17.235Z,94458.75
2023-08-15T16:58:45.984Z,94468.56
2023-08-15T17:01:14.060Z,94472.72
2023-08-15T17:03:40.982Z,94470.19
2023-08-15T17:06:08.028Z,94466.75
2023-08-15T17:08:34.763Z,94473.66
2023-08-15T17:11:01.489Z,94484.91
2023-08-15T17:13:28.245Z,94479.59
2023-08-15T17:15:55.188Z,94478.13
2023-08-15T17:18:21.918Z,94483.84
2023-08-15T17:20:48.617Z,94486.81
2023-08-15T17:23:15.416Z,94490.13
2023-08-15T17:25:42.134Z,94492.94
2023-08-15T17:28:08.902Z,94495.16
2023-08-15T17:30:35.700Z,94497.28
2023-08-15T17:33:02.581Z,94500.13
2023-08-15T17:35:29.355Z,94494.34
2023-08-15T17:37:56.133Z,94500.38
2023-08-15T17:40:22.884Z,94500.78
2023-08-15T17:42:49.645Z,94504.47
2023-08-15T17:45:16.475Z,94504.94
2023-08-15T17:47:43.240Z,94507.34
2023-08-15T17:50:10.354Z,94504.22
2023-08-15T17:52:38.156Z,94509.78
2023-08-15T17:55:06.262Z,94507.66
2023-08-15T17:57:32.956Z,94516.06
2023-08-15T17:59:59.811Z,94518.22
2023-08-15T18:02:26.598Z,94519.59
2023-08-15T18:04:53.369Z,94517.75
2023-08-15T18:07:20.121Z,94522.44
2023-08-15T18:09:46.869Z,94522.91
2023-08-15T18:12:13.595Z,94520.34
2023-08-15T18:14:42.556Z,94522.81
2023-08-15T18:17:09.361Z,94522.97
2023-08-15T18:19:36.248Z,94527.41
2023-08-15T18:22:02.969Z,94523.97
2023-08-15T18:24:30.044Z,94527.16
2023-08-15T18:26:56.899Z,94534.25
2023-08-15T18:29:23.841Z,94529.16
2023-08-15T18:31:50.569Z,94539.81
2023-08-15T18:34:17.328Z,94546.50
2023-08-15T18:36:44.055Z,94543.09
2023-08-15T18:39:11.340Z,94547.13
2023-08-15T18:41:38.083Z,94551.09
2023-08-15T18:44:07.307Z,94552.78
2023-08-15T18:46:34.496Z,94563.38
2023-08-15T18:49:01.200Z,94565.44
2023-08-15T18:51:27.924Z,94575.69
2023-08-15T18:53:55.991Z,94582.75
2023-08-15T18:56:23.818Z,94584.34
2023-08-15T18:58:50.505Z,94583.66
2023-08-15T19:01:17.700Z,94590.63
2023-08-15T19:03:44.707Z,94588.28
2023-08-15T19:06:11.792Z,94589.13
2023-08-15T19:08:38.494Z,94589.94
2023-08-15T19:11:05.353Z,94589.97
2023-08-15T19:13:32.122Z,94585.69
2023-08-15T19:15:58.986Z,94583.00
2023-08-15T19:18:25.730Z,94580.72
2023-08-15T19:20:52.406Z,94579.94
2023-08-15T19:23:19.145Z,94579.19
2023-08-15T19:25:46.505Z,94578.81
2023-08-15T19:28:13.477Z,94582.34
2023-08-15T19:30:42.771Z,94587.81
2023-08-15T19:33:10.074Z,94577.66
2023-08-15T19:35:36.887Z,94576.16
2023-08-15T19:38:03.729Z,94581.25
2023-08-15T19:40:30.506Z,94584.78
2023-08-15T19:42:57.213Z,94593.41
2023-08-15T19:45:24.006Z,94602.06
2023-08-15T19:47:50.816Z,94611.44
2023-08-15T19:50:17.519Z,94609.50
2023-08-15T19:52:44.253Z,94607.56
2023-08-15T19:55:11.244Z,94618.13
2023-08-15T19:57:38.027Z,94614.63
2023-08-15T20:00:06.065Z,94615.47
2023-08-15T20:02:37.339Z,94620.94
2023-08-15T20:05:04.297Z,94621.34
2023-08-15T20:07:31.075Z,94618.59
2023-08-15T20:10:09.718Z,94603.78
2023-08-15T20:12:39.168Z,94614.72
2023-08-15T20:15:06.605Z,94613.16
2023-08-15T20:17:33.503Z,94633.50
2023-08-15T20:20:00.591Z,94637.41
2023-08-15T20:22:27.603Z,94632.72
2023-08-15T20:24:57.683Z,94638.56
2023-08-15T20:27:24.581Z,94629.97
2023-08-15T20:29:54.325Z,94640.09
2023-08-15T20:32:21.466Z,94646.72
2023-08-15T20:34:48.480Z,94645.91
2023-08-15T20:37:15.926Z,94641.19
2023-08-15T20:39:42.813Z,94640.41
2023-08-15T20:42:09.887Z,94651.72
2023-08-15T20:44:36.705Z,94650.16
2023-08-15T20:47:03.817Z,94671.72
2023-08-15T20:49:30.592Z,94669.78
2023-08-15T20:51:57.712Z,94663.59
2023-08-15T20:54:24.714Z,94660.84
2023-08-15T20:56:51.436Z,94658.13
2023-08-15T20:59:18.192Z,94656.16
2023-08-15T21:01:45.019Z,94656.13
2023-08-15T21:04:11.792Z,94655.34
2023-08-15T21:06:38.597Z,94657.34
2023-08-15T21:09:05.523Z,94653.44
2023-08-15T21:11:32.292Z,94650.28
2023-08-15T21:13:59.148Z,94651.13
2023-08-15T21:16:25.918Z,94653.84
2023-08-15T21:18:52.813Z,94647.22
2023-08-15T21:21:19.826Z,94643.72
2023-08-15T21:23:46.541Z,94645.69
2023-08-15T21:26:13.565Z,94641.00
2023-08-15T21:28:40.303Z,94642.22
2023-08-15T21:31:07.562Z,94638.69
2023-08-15T21:33:34.371Z,94641.81
2023-08-15T21:36:01.475Z,94643.38
2023-08-15T21:38:28.305Z,94641.81
2023-08-15T21:40:55.360Z,94642.59
2023-08-15T21:43:22.130Z,94646.88
2023-08-15T21:45:49.212Z,94647.69
2023-08-15T21:48:16.121Z,94652.34
2023-08-15T21:50:42.829Z,94646.50
2023-08-15T21:53:09.668Z,94649.22
2023-08-15T21:55:36.565Z,94643.38
2023-08-15T21:58:03.456Z,94642.97
2023-08-15T22:00:30.289Z,94641.44
2023-08-15T22:02:59.960Z,94639.06
2023-08-15T22:05:27.291Z,94636.72
2023-08-15T22:07:54.238Z,94638.25
2023-08-15T22:10:24.413Z,94644.88
2023-08-15T22:12:51.681Z,94653.47
2023-08-15T22:15:19.716Z,94643.66
2023-08-15T22:17:54.822Z,94658.88
2023-08-15T22:20:31.665Z,94659.22
2023-08-15T22:22:58.428Z,94661.59
2023-08-15T22:25:25.268Z,94654.59
2023-08-15T22:27:52.145Z,94653.84
2023-08-15T22:30:19.040Z,94654.63
2023-08-15T22:32:45.792Z,94653.41
2023-08-15T22:35:12.642Z,94649.13
2023-08-15T22:37:39.779Z,94657.69
2023-08-15T22:40:07.211Z,94656.47
2023-08-15T22:42:34.167Z,94659.59
2023-08-15T22:45:01.037Z,94657.28
2023-08-15T22:47:27.899Z,94645.22
2023-08-15T22:49:54.656Z,94644.44
2023-08-15T22:52:21.471Z,94640.88
2023-08-15T22:54:48.320Z,94636.94
2023-08-15T22:57:15.310Z,94640.75
2023-08-15T22:59:42.160Z,94633.28
2023-08-15T23:02:09.041Z,94644.16
2023-08-15T23:04:35.970Z,94637.16
2023-08-15T23:07:02.989Z,94633.66
2023-08-15T23:09:29.922Z,94626.59
2023-08-15T23:11:56.826Z,94628.91
2023-08-15T23:14:23.744Z,94629.28
2023-08-15T23:16:50.581Z,94620.34
2023-08-15T23:19:17.638Z,94626.16
2023-08-15T23:21:44.771Z,94613.69
2023-08-15T23:24:11.625Z,94618.31
2023-08-15T23:26:38.647Z,94607.75
2023-08-15T23:29:05.763Z,94601.84
2023-08-15T23:31:34.268Z,94610.75
2023-08-15T23:34:06.262Z,94605.72
2023-08-15T23:36:34.383Z,94607.69
2023-08-15T23:39:02.586Z,94605.78
2023-08-15T23:41:29.544Z,94602.66
2023-08-15T23:43:56.599Z,94596.44
2023-08-15T23:46:25.900Z,94590.66
2023-08-15T23:48:52.854Z,94589.88
2023-08-15T23:51:19.973Z,94578.94
2023-08-15T23:53:48.692Z,94571.50
2023-08-15T23:56:16.227Z,94571.50
2023-08-15T23:58:46.143Z,94572.22
